Time;durP1;ratioP1;P1;durP2;ratioP2;P2;SDS_P1;SDS_P2;PMS_P1;PMS_P2;Temp;Humidity;BMP_temperature;BMP_pressure;BME280_temperature;BME280_humidity;BME280_pressure;Samples;Min_cycle;Max_cycle;Signal;HPM_P1;HPM_P2
2022/11/26 00:02:20;;;;;;;16.42;6.80;;;7.00;99.90;;;;;;5001083;28;20125;-79
2022/11/26 00:04:46;;;;;;;16.85;6.40;;;6.80;99.90;;;;;;4988250;28;20988;-79
2022/11/26 00:07:12;;;;;;;19.30;6.90;;;6.80;99.90;;;;;;5004200;28;20041;-79
2022/11/26 00:09:38;;;;;;;23.65;7.63;;;6.80;99.90;;;;;;4987859;28;20030;-79
2022/11/26 00:12:23;;;;;;;18.30;6.88;;;6.90;99.90;;;;;;5004856;28;20165;-79
2022/11/26 00:14:49;;;;;;;17.45;4.78;;;6.90;99.90;;;;;;4969844;28;20497;-79
2022/11/26 00:17:15;;;;;;;17.67;6.00;;;6.90;99.90;;;;;;5000137;28;20041;-79
2022/11/26 00:19:40;;;;;;;18.75;6.32;;;6.80;99.90;;;;;;4974317;28;20525;-79
2022/11/26 00:22:27;;;;;;;20.80;8.43;;;7.00;99.90;;;;;;4978200;28;20026;-79
2022/11/26 00:24:53;;;;;;;;;;;7.10;99.90;;;;;;5004512;28;20037;-79
2022/11/26 00:27:18;;;;;;;17.33;6.07;;;7.00;99.90;;;;;;5022096;28;19970;-79
2022/11/26 00:29:44;;;;;;;11.55;6.30;;;7.00;99.90;;;;;;4978465;28;20676;-79
2022/11/26 00:32:14;;;;;;;19.50;6.97;;;6.90;99.90;;;;;;4997672;28;20041;-79
2022/11/26 00:34:40;;;;;;;22.63;7.38;;;6.90;99.90;;;;;;5005626;28;20447;-79
2022/11/26 00:37:11;;;;;;;26.98;9.10;;;6.90;99.90;;;;;;4987585;28;20034;-79
2022/11/26 00:39:36;;;;;;;17.77;7.15;;;6.90;99.90;;;;;;4991524;28;20516;-79
2022/11/26 00:42:02;;;;;;;26.05;8.52;;;7.00;99.90;;;;;;5010153;28;20033;-80
2022/11/26 00:44:27;;;;;;;26.83;9.07;;;7.00;99.90;;;;;;5023746;28;20116;-80
2022/11/26 00:46:53;;;;;;;17.90;8.02;;;6.90;99.90;;;;;;5009047;28;20121;-80
2022/11/26 00:49:19;;;;;;;18.77;7.22;;;6.80;99.90;;;;;;5000966;28;20118;-80
2022/11/26 00:51:45;;;;;;;23.33;6.82;;;6.90;99.90;;;;;;5004445;28;20057;-80
2022/11/26 00:54:12;;;;;;;14.85;6.18;;;7.00;99.90;;;;;;5013778;28;20543;-80
2022/11/26 00:56:38;;;;;;;16.40;6.32;;;7.00;99.90;;;;;;5005886;28;20030;-81
2022/11/26 00:59:04;;;;;;;14.15;6.30;;;7.00;99.90;;;;;;5008400;28;20034;-80
2022/11/26 01:01:30;;;;;;;24.85;8.77;;;7.00;99.90;;;;;;4996712;28;20477;-80
2022/11/26 01:03:57;;;;;;;16.60;6.60;;;7.10;99.90;;;;;;5005079;28;20030;-80
2022/11/26 01:06:29;;;;;;;14.80;6.60;;;7.10;99.90;;;;;;4992231;28;20030;-80
2022/11/26 01:08:54;;;;;;;21.55;7.28;;;7.00;99.90;;;;;;5001178;28;20030;-81
2022/11/26 01:11:21;;;;;;;18.02;6.97;;;7.00;99.90;;;;;;4985716;28;20088;-81
2022/11/26 01:13:48;;;;;;;20.00;5.65;;;7.00;99.90;;;;;;5016058;28;20044;-81
2022/11/26 01:16:31;;;;;;;17.73;5.97;;;7.00;99.90;;;;;;5011922;28;20037;-80
2022/11/26 01:19:04;;;;;;;14.02;4.88;;;7.10;99.90;;;;;;4991141;28;20030;-80
2022/11/26 01:21:30;;;;;;;20.55;6.03;;;7.10;99.90;;;;;;5004804;28;20085;-80
2022/11/26 01:23:56;;;;;;;16.73;6.70;;;7.00;99.90;;;;;;4981625;28;20038;-81
2022/11/26 01:26:23;;;;;;;24.58;7.63;;;7.10;99.90;;;;;;4966260;28;20363;-81
2022/11/26 01:28:48;;;;;;;24.95;7.40;;;7.00;99.90;;;;;;4978072;28;20042;-81
2022/11/26 01:31:16;;;;;;;12.55;5.70;;;7.10;99.90;;;;;;4981020;28;20084;-81
2022/11/26 01:33:42;;;;;;;19.75;4.03;;;7.20;99.90;;;;;;4970333;28;20034;-81
2022/11/26 01:36:29;;;;;;;9.70;4.13;;;7.20;99.90;;;;;;4984850;28;20035;-81
2022/11/26 01:39:00;;;;;;;18.23;7.32;;;7.20;99.90;;;;;;5008207;28;20121;-81
2022/11/26 01:41:58;;;;;;;28.88;7.78;;;7.20;99.90;;;;;;5000181;28;20035;-80
2022/11/26 01:44:26;;;;;;;14.52;6.30;;;7.10;99.90;;;;;;4998081;28;20110;-80
2022/11/26 01:46:52;;;;;;;15.60;5.65;;;7.10;99.90;;;;;;4983416;28;20088;-81
2022/11/26 01:49:28;;;;;;;23.67;8.68;;;7.00;99.90;;;;;;4991802;28;20039;-80
2022/11/26 01:52:23;;;;;;;25.25;8.15;;;7.00;99.90;;;;;;4982999;28;20037;-80
2022/11/26 01:54:49;;;;;;;11.85;4.47;;;7.20;99.90;;;;;;4986151;28;20030;-81
2022/11/26 01:57:20;;;;;;;18.25;6.00;;;7.10;99.90;;;;;;4993738;28;20049;-80
2022/11/26 01:59:53;;;;;;;18.90;6.18;;;7.10;99.90;;;;;;4979162;28;20125;-81
2022/11/26 02:02:20;;;;;;;14.02;4.70;;;7.00;99.90;;;;;;4982352;28;20026;-80
2022/11/26 02:05:02;;;;;;;22.65;6.43;;;7.10;99.90;;;;;;4987926;28;20527;-80
2022/11/26 02:07:28;;;;;;;22.00;6.70;;;7.20;99.90;;;;;;5001856;28;20081;-81
2022/11/26 02:09:53;;;;;;;16.40;5.38;;;7.20;99.90;;;;;;5019631;28;20837;-80
2022/11/26 02:12:19;;;;;;;14.20;5.25;;;7.10;99.90;;;;;;5010917;28;20025;-80
2022/11/26 02:14:45;;;;;;;14.80;6.28;;;7.10;99.90;;;;;;5004699;28;20025;-80
2022/11/26 02:17:19;;;;;;;14.73;6.85;;;7.20;99.90;;;;;;5008901;28;20595;-80
2022/11/26 02:20:22;;;;;;;25.73;6.78;;;7.10;99.90;;;;;;4988877;28;20053;-80
2022/11/26 02:22:48;;;;;;;21.83;7.00;;;7.10;99.90;;;;;;5000090;28;20647;-78
2022/11/26 02:25:22;;;;;;;15.95;5.90;;;7.00;99.90;;;;;;4996295;28;20044;-80
2022/11/26 02:27:48;;;;;;;15.80;5.78;;;7.00;99.90;;;;;;4992350;28;20335;-80
2022/11/26 02:30:14;;;;;;;14.95;6.20;;;6.90;99.90;;;;;;4995257;28;20026;-80
2022/11/26 02:32:53;;;;;;;12.13;5.43;;;6.90;99.90;;;;;;4981041;28;20030;-80
2022/11/26 02:35:23;;;;;;;19.40;6.15;;;6.90;99.90;;;;;;4982460;28;20096;-80
2022/11/26 02:37:59;;;;;;;16.60;6.13;;;7.00;99.90;;;;;;5004040;28;20569;-80
2022/11/26 02:40:25;;;;;;;18.23;6.57;;;7.00;99.90;;;;;;4976948;28;20034;-80
2022/11/26 02:42:50;;;;;;;16.02;5.80;;;7.00;99.90;;;;;;4995009;28;20026;-80
2022/11/26 02:45:27;;;;;;;18.95;5.10;;;6.90;99.90;;;;;;5004467;28;20025;-80
2022/11/26 02:47:54;;;;;;;19.42;6.53;;;6.90;99.90;;;;;;5011016;28;20057;-80
2022/11/26 02:50:32;;;;;;;22.25;6.68;;;6.80;99.90;;;;;;5002791;28;20092;-80
2022/11/26 02:52:57;;;;;;;13.45;5.43;;;6.70;99.90;;;;;;5004656;28;20064;-80
2022/11/26 02:55:26;;;;;;;19.60;6.18;;;6.70;99.90;;;;;;5000364;28;20036;-80
2022/11/26 02:57:52;;;;;;;17.75;6.35;;;6.70;99.90;;;;;;5004292;28;20040;-80
2022/11/26 03:00:18;;;;;;;20.40;6.55;;;6.70;99.90;;;;;;5020561;28;20034;-81
2022/11/26 03:02:58;;;;;;;17.33;5.80;;;6.70;99.90;;;;;;5005121;28;20067;-80
2022/11/26 03:05:24;;;;;;;10.38;5.07;;;6.70;99.90;;;;;;5004766;28;20124;-80
2022/11/26 03:07:50;;;;;;;13.40;5.63;;;6.70;99.90;;;;;;4999921;28;20116;-80
2022/11/26 03:10:19;;;;;;;15.98;5.38;;;6.60;99.90;;;;;;4989399;28;20033;-80
2022/11/26 03:12:48;;;;;;;15.98;6.13;;;6.50;99.90;;;;;;4992680;28;20103;-80
2022/11/26 03:15:14;;;;;;;19.17;6.70;;;6.50;99.90;;;;;;4972462;28;20026;-80
2022/11/26 03:17:39;;;;;;;27.00;7.07;;;6.50;99.90;;;;;;4975408;28;20390;-80
2022/11/26 03:20:06;;;;;;;17.85;5.93;;;6.30;99.90;;;;;;4969458;28;20018;-80
2022/11/26 03:22:31;;;;;;;18.17;7.05;;;6.30;99.90;;;;;;4985770;28;20410;-80
2022/11/26 03:24:57;;;;;;;25.65;6.47;;;6.30;99.90;;;;;;4984209;28;20088;-80
2022/11/26 03:27:22;;;;;;;15.00;5.20;;;6.20;99.90;;;;;;4994057;28;20034;-80
2022/11/26 03:29:48;;;;;;;14.38;4.97;;;6.20;99.90;;;;;;5023098;28;20025;-80
2022/11/26 03:32:20;;;;;;;18.65;5.93;;;6.20;99.90;;;;;;5004695;28;20036;-78
2022/11/26 03:34:45;;;;;;;16.45;5.38;;;6.20;99.90;;;;;;5004222;28;20041;-79
2022/11/26 03:37:11;;;;;;;14.40;5.30;;;6.20;99.90;;;;;;5022762;28;20448;-80
2022/11/26 03:39:36;;;;;;;16.67;5.82;;;6.30;99.90;;;;;;4998313;28;20500;-80
2022/11/26 03:42:02;;;;;;;20.25;6.78;;;6.30;99.90;;;;;;4979837;28;20106;-80
2022/11/26 03:44:27;;;;;;;22.83;6.88;;;6.20;99.90;;;;;;4961253;28;20034;-80
2022/11/26 03:46:53;;;;;;;17.42;6.72;;;6.20;99.90;;;;;;4995994;28;20026;-80
2022/11/26 03:49:18;;;;;;;16.38;6.53;;;6.10;99.90;;;;;;4996895;28;20042;-80
2022/11/26 03:51:44;;;;;;;14.88;5.45;;;6.10;99.90;;;;;;4978450;28;20037;-80
2022/11/26 03:54:10;;;;;;;12.65;6.35;;;6.00;99.90;;;;;;4996964;28;20032;-80
2022/11/26 03:56:37;;;;;;;21.75;5.95;;;6.00;99.90;;;;;;4966029;28;20026;-80
2022/11/26 03:59:03;;;;;;;18.70;6.07;;;6.00;99.90;;;;;;4984541;28;20100;-80
2022/11/26 04:01:31;;;;;;;19.63;7.75;;;5.90;99.90;;;;;;4974539;28;20034;-84
2022/11/26 04:03:57;;;;;;;23.52;7.18;;;5.80;99.90;;;;;;5005146;28;20489;-84
2022/11/26 04:06:23;;;;;;;22.35;8.32;;;5.70;99.90;;;;;;5007125;28;20045;-84
2022/11/26 04:08:48;;;;;;;18.10;5.65;;;5.60;99.90;;;;;;5004749;28;20030;-84
2022/11/26 04:11:14;;;;;;;13.52;4.82;;;5.60;99.90;;;;;;4980209;28;20431;-84
2022/11/26 04:13:40;;;;;;;23.42;8.90;;;5.60;99.90;;;;;;4993068;28;20818;-84
2022/11/26 04:16:05;;;;;;;23.27;9.18;;;5.50;99.90;;;;;;5007281;28;20022;-84
2022/11/26 04:18:31;;;;;;;20.30;7.95;;;5.30;99.90;;;;;;4975625;28;20146;-84
2022/11/26 04:20:56;;;;;;;14.82;6.20;;;5.30;99.90;;;;;;5007707;28;20022;-84
2022/11/26 04:23:22;;;;;;;23.88;8.52;;;5.30;99.90;;;;;;4999370;28;20148;-83
2022/11/26 04:25:48;;;;;;;18.45;7.68;;;5.30;99.90;;;;;;5000869;28;20042;-84
2022/11/26 04:28:14;;;;;;;24.00;8.93;;;5.40;99.90;;;;;;4983380;28;20062;-84
2022/11/26 04:30:39;;;;;;;17.85;6.53;;;5.40;99.90;;;;;;4972795;28;20978;-84
2022/11/26 04:33:05;;;;;;;15.85;5.60;;;5.30;99.90;;;;;;4974650;28;20059;-81
2022/11/26 04:35:30;;;;;;;29.92;9.00;;;5.30;99.90;;;;;;4998898;28;20385;-84
2022/11/26 04:37:56;;;;;;;23.42;6.80;;;5.30;99.90;;;;;;4974995;28;20605;-83
2022/11/26 04:40:22;;;;;;;27.77;8.63;;;5.30;99.90;;;;;;5021898;28;20473;-82
2022/11/26 04:42:47;;;;;;;17.13;6.78;;;5.40;99.90;;;;;;5003288;28;20486;-84
2022/11/26 04:45:13;;;;;;;24.65;7.63;;;5.30;99.90;;;;;;5006185;28;20170;-83
2022/11/26 04:47:38;;;;;;;11.55;5.57;;;5.40;99.90;;;;;;5005119;28;20145;-83
2022/11/26 04:50:05;;;;;;;18.80;6.95;;;5.60;99.90;;;;;;4987688;28;20026;-83
2022/11/26 04:52:30;;;;;;;18.60;5.90;;;5.60;99.90;;;;;;4988019;28;20039;-83
2022/11/26 04:54:56;;;;;;;16.92;7.53;;;5.70;99.90;;;;;;5021535;28;20025;-83
2022/11/26 04:57:21;;;;;;;17.40;6.18;;;5.70;99.90;;;;;;5018990;28;20123;-83
2022/11/26 04:59:47;;;;;;;22.60;8.18;;;5.60;99.90;;;;;;5002799;28;20038;-85
2022/11/26 05:02:12;;;;;;;17.88;6.18;;;5.60;99.90;;;;;;4985974;28;20034;-83
2022/11/26 05:04:38;;;;;;;30.20;8.60;;;5.50;99.90;;;;;;4983190;28;20704;-83
2022/11/26 05:07:03;;;;;;;15.35;6.47;;;5.50;99.90;;;;;;4999094;28;20121;-83
2022/11/26 05:09:29;;;;;;;20.55;6.90;;;5.60;99.90;;;;;;4992208;28;20409;-83
2022/11/26 05:11:54;;;;;;;18.40;6.72;;;5.60;99.90;;;;;;4993248;28;20054;-83
2022/11/26 05:14:20;;;;;;;22.05;9.02;;;5.50;99.90;;;;;;4998695;28;20030;-83
2022/11/26 05:16:45;;;;;;;32.53;10.02;;;5.50;99.90;;;;;;4999869;28;20035;-83
2022/11/26 05:19:11;;;;;;;27.27;8.80;;;5.50;99.90;;;;;;4982926;28;20027;-83
2022/11/26 05:21:36;;;;;;;15.35;6.28;;;5.40;99.90;;;;;;4981598;28;20417;-83
2022/11/26 05:24:02;;;;;;;27.00;10.07;;;5.40;99.90;;;;;;4659873;28;10000233;-83
2022/11/26 05:26:28;;;;;;;21.13;7.65;;;5.40;99.90;;;;;;5002773;28;20133;-83
2022/11/26 05:28:53;;;;;;;31.33;9.00;;;5.30;99.90;;;;;;5009686;28;20021;-83
2022/11/26 05:31:19;;;;;;;20.55;8.00;;;5.30;99.90;;;;;;4994679;28;20037;-83
2022/11/26 05:33:45;;;;;;;23.67;9.68;;;5.40;99.90;;;;;;5017696;28;20088;-83
2022/11/26 05:36:11;;;;;;;21.00;8.82;;;5.40;99.90;;;;;;4998110;28;20092;-83
2022/11/26 05:38:37;;;;;;;28.52;9.50;;;5.30;99.90;;;;;;4965063;28;20030;-83
2022/11/26 05:41:02;;;;;;;25.05;9.00;;;5.30;99.90;;;;;;4966604;28;20032;-82
2022/11/26 05:43:28;;;;;;;20.88;7.43;;;5.20;99.90;;;;;;4979657;28;20030;-83
2022/11/26 05:45:53;;;;;;;24.08;9.65;;;5.20;99.90;;;;;;5001036;28;20116;-82
2022/11/26 05:48:19;;;;;;;25.40;10.45;;;5.10;99.90;;;;;;4986607;28;20173;-82
2022/11/26 05:50:44;;;;;;;29.65;10.05;;;5.10;99.90;;;;;;5000858;28;20645;-83
2022/11/26 05:53:10;;;;;;;31.00;10.45;;;4.90;99.90;;;;;;5008056;28;20063;-83
2022/11/26 05:55:42;;;;;;;22.83;8.57;;;4.90;99.90;;;;;;5004172;28;20153;-83
2022/11/26 05:58:08;;;;;;;35.53;10.60;;;4.90;99.90;;;;;;5019208;28;20017;-83
2022/11/26 06:00:34;;;;;;;17.92;6.95;;;5.00;99.90;;;;;;5004785;28;20096;-83
2022/11/26 06:02:59;;;;;;;38.55;13.20;;;5.10;99.90;;;;;;5001647;28;20036;-83
2022/11/26 06:05:25;;;;;;;29.10;10.00;;;5.10;99.90;;;;;;5002084;28;20397;-82
2022/11/26 06:07:51;;;;;;;16.88;6.15;;;5.00;99.90;;;;;;5004113;28;20576;-83
2022/11/26 06:10:16;;;;;;;32.10;10.02;;;5.10;99.90;;;;;;4989258;28;20032;-83
2022/11/26 06:12:42;;;;;;;28.48;10.70;;;5.20;99.90;;;;;;5018106;28;20038;-83
2022/11/26 06:15:08;;;;;;;24.25;11.40;;;5.00;99.90;;;;;;4987399;28;20025;-83
2022/11/26 06:17:34;;;;;;;22.38;8.38;;;5.00;99.90;;;;;;5021659;28;20195;-83
2022/11/26 06:20:01;;;;;;;28.35;10.73;;;5.00;99.90;;;;;;5000830;28;20525;-83
2022/11/26 06:22:27;;;;;;;27.80;9.85;;;4.80;99.90;;;;;;5020395;28;20056;-83
2022/11/26 06:24:52;;;;;;;25.65;8.07;;;4.90;99.90;;;;;;4990707;28;20072;-83
2022/11/26 06:27:18;;;;;;;31.75;11.65;;;4.80;99.90;;;;;;5015801;28;20076;-83
2022/11/26 06:29:43;;;;;;;24.40;9.50;;;4.80;99.90;;;;;;5005999;28;20037;-83
2022/11/26 06:32:09;;;;;;;27.98;11.68;;;4.60;99.90;;;;;;5010451;28;20462;-82
2022/11/26 06:34:34;;;;;;;31.45;11.27;;;4.60;99.90;;;;;;5020895;28;20037;-82
2022/11/26 06:37:00;;;;;;;32.70;11.68;;;4.50;99.90;;;;;;4999994;28;20117;-82
2022/11/26 06:39:26;;;;;;;28.88;9.50;;;4.50;99.90;;;;;;5003361;28;20068;-83
2022/11/26 06:41:52;;;;;;;20.85;8.13;;;4.60;99.90;;;;;;5005825;28;20086;-83
2022/11/26 06:44:17;;;;;;;26.77;10.45;;;4.70;99.90;;;;;;5009109;28;20117;-83
2022/11/26 06:46:43;;;;;;;29.77;10.80;;;4.80;99.90;;;;;;5018788;28;20124;-82
2022/11/26 06:49:09;;;;;;;19.63;7.10;;;4.80;99.90;;;;;;5007343;28;20124;-83
2022/11/26 06:51:35;;;;;;;26.55;9.40;;;4.90;99.90;;;;;;5006556;28;20389;-82
2022/11/26 06:54:01;;;;;;;17.85;8.73;;;4.90;99.90;;;;;;4977344;28;20113;-82
2022/11/26 06:56:27;;;;;;;16.63;7.10;;;5.00;99.90;;;;;;4982734;28;20126;-83
2022/11/26 06:58:55;;;;;;;15.88;7.25;;;4.90;99.90;;;;;;4989587;28;20077;-83
2022/11/26 07:01:23;;;;;;;41.38;12.35;;;4.90;99.90;;;;;;4971291;28;20669;-83
2022/11/26 07:03:48;;;;;;;18.45;8.50;;;4.80;99.90;;;;;;4979865;28;20033;-82
2022/11/26 07:06:22;;;;;;;33.53;11.73;;;4.70;99.90;;;;;;4977303;28;20025;-83
2022/11/26 07:08:47;;;;;;;38.53;12.63;;;4.60;99.90;;;;;;4981333;28;20460;-83
2022/11/26 07:11:13;;;;;;;41.97;14.98;;;4.50;99.90;;;;;;4982456;28;20117;-83
2022/11/26 07:13:45;;;;;;;17.98;8.85;;;4.60;99.90;;;;;;4991404;28;20026;-83
2022/11/26 07:16:11;;;;;;;38.70;15.05;;;4.70;99.90;;;;;;5007516;28;20026;-83
2022/11/26 07:18:36;;;;;;;16.33;7.07;;;4.60;99.90;;;;;;4994673;28;20083;-82
2022/11/26 07:21:11;;;;;;;25.77;9.50;;;4.70;99.90;;;;;;5008956;28;20038;-83
2022/11/26 07:23:37;;;;;;;22.50;9.80;;;4.80;99.90;;;;;;4997809;28;20120;-83
2022/11/26 07:26:03;;;;;;;16.85;7.57;;;4.70;99.90;;;;;;4977421;28;20462;-83
2022/11/26 07:28:30;;;;;;;26.05;10.10;;;4.80;99.90;;;;;;4966907;28;20471;-82
2022/11/26 07:31:02;;;;;;;25.65;9.23;;;4.80;99.90;;;;;;4968565;28;20069;-83
2022/11/26 07:33:29;;;;;;;26.55;11.13;;;4.80;99.90;;;;;;4999665;28;20031;-83
2022/11/26 07:36:01;;;;;;;29.38;12.75;;;4.70;99.90;;;;;;4978932;28;20255;-83
2022/11/26 07:38:27;;;;;;;26.55;9.75;;;4.80;99.90;;;;;;4998402;28;20848;-83
2022/11/26 07:40:53;;;;;;;27.35;11.35;;;4.90;99.90;;;;;;4989685;28;20417;-83
2022/11/26 07:43:19;;;;;;;23.17;9.93;;;4.90;99.90;;;;;;4973647;28;20121;-83
2022/11/26 07:45:44;;;;;;;20.70;9.57;;;4.80;99.90;;;;;;4974855;28;20025;-84
2022/11/26 07:48:10;;;;;;;27.73;9.98;;;4.80;99.90;;;;;;4994073;28;20021;-83
2022/11/26 07:50:36;;;;;;;36.13;11.52;;;5.00;99.90;;;;;;5025261;28;20021;-83
2022/11/26 07:53:02;;;;;;;26.52;9.80;;;5.00;99.90;;;;;;4995723;28;20034;-83
2022/11/26 07:55:28;;;;;;;18.83;8.73;;;5.00;99.90;;;;;;5008324;28;20048;-84
2022/11/26 07:57:53;;;;;;;18.02;7.82;;;4.90;99.90;;;;;;5012621;28;20052;-84
2022/11/26 08:00:19;;;;;;;29.52;12.07;;;5.20;99.90;;;;;;4995381;28;20034;-83
2022/11/26 08:02:44;;;;;;;22.50;8.73;;;5.20;99.90;;;;;;5025541;28;20033;-83
2022/11/26 08:05:10;;;;;;;26.42;10.73;;;5.30;99.90;;;;;;4999819;28;20521;-83
2022/11/26 08:07:36;;;;;;;32.95;10.52;;;5.30;99.90;;;;;;4976275;28;20470;-83
2022/11/26 08:10:02;;;;;;;27.88;10.80;;;5.30;99.90;;;;;;4960856;28;20080;-83
2022/11/26 08:12:28;;;;;;;25.75;9.65;;;5.40;99.90;;;;;;4970678;28;20041;-83
2022/11/26 08:14:53;;;;;;;23.20;9.35;;;5.50;99.90;;;;;;5004249;28;20031;-84
2022/11/26 08:17:19;;;;;;;30.85;11.23;;;5.70;99.90;;;;;;4992123;28;20039;-83
2022/11/26 08:19:44;;;;;;;25.30;8.45;;;5.70;99.90;;;;;;4995228;28;20074;-83
2022/11/26 08:22:10;;;;;;;26.75;10.65;;;5.70;99.90;;;;;;4987428;28;20106;-83
2022/11/26 08:24:35;;;;;;;19.85;9.15;;;5.80;99.90;;;;;;4957519;28;20038;-84
2022/11/26 08:27:01;;;;;;;19.67;8.85;;;5.80;99.90;;;;;;4975696;28;20031;-83
2022/11/26 08:29:27;;;;;;;26.75;10.20;;;6.00;99.90;;;;;;4985595;28;20023;-82
2022/11/26 08:31:52;;;;;;;21.60;9.45;;;6.10;99.90;;;;;;4992782;28;20397;-82
2022/11/26 08:34:18;;;;;;;23.60;9.73;;;6.00;99.90;;;;;;4995306;28;20033;-83
2022/11/26 08:36:44;;;;;;;23.48;10.57;;;6.10;99.90;;;;;;5028219;28;20026;-83
2022/11/26 08:39:16;;;;;;;23.73;10.52;;;6.20;99.90;;;;;;5012798;28;20489;-82
2022/11/26 08:41:41;;;;;;;28.98;11.23;;;6.30;99.90;;;;;;4990042;28;20025;-83
2022/11/26 08:44:07;;;;;;;30.70;11.85;;;6.20;99.90;;;;;;5004948;28;20038;-83
2022/11/26 08:46:35;;;;;;;19.55;9.57;;;6.30;99.90;;;;;;5004097;28;20032;-83
2022/11/26 08:49:01;;;;;;;25.25;10.02;;;6.40;99.90;;;;;;5005188;28;20054;-82
2022/11/26 08:51:26;;;;;;;22.25;9.30;;;6.50;99.90;;;;;;5019882;28;20504;-82
2022/11/26 08:53:52;;;;;;;25.45;9.18;;;6.50;99.90;;;;;;5024449;28;20101;-83
2022/11/26 08:56:18;;;;;;;22.20;8.55;;;6.70;99.90;;;;;;5026896;28;20045;-85
2022/11/26 08:58:44;;;;;;;25.45;10.25;;;6.70;99.90;;;;;;5017488;28;20029;-82
2022/11/26 09:01:20;;;;;;;20.73;9.68;;;6.80;99.90;;;;;;4981351;28;20486;-83
2022/11/26 09:03:49;;;;;;;24.73;9.25;;;6.80;99.90;;;;;;4982927;28;20039;-83
2022/11/26 09:06:15;;;;;;;22.95;8.90;;;7.00;99.90;;;;;;4986032;28;20027;-83
2022/11/26 09:09:11;;;;;;;19.05;8.23;;;7.00;99.90;;;;;;4997051;28;20541;-84
2022/11/26 09:11:29;;;;;;;16.90;7.93;;;7.10;99.90;;;;;;4988950;28;20048;-82
2022/11/26 09:13:55;;;;;;;18.75;6.90;;;7.20;99.90;;;;;;4973358;28;20033;-82
2022/11/26 09:16:21;;;;;;;23.45;8.38;;;7.20;99.90;;;;;;5002797;28;20037;-82
2022/11/26 09:18:47;;;;;;;15.23;7.30;;;7.30;99.90;;;;;;4992067;28;20262;-82
2022/11/26 09:21:12;;;;;;;17.90;7.57;;;7.40;99.90;;;;;;4975913;28;20402;-82
2022/11/26 09:23:38;;;;;;;18.13;8.30;;;7.50;99.90;;;;;;4974200;28;20045;-82
2022/11/26 09:26:03;;;;;;;31.25;8.18;;;7.70;99.90;;;;;;4984479;28;20038;-82
2022/11/26 09:28:29;;;;;;;23.38;7.65;;;7.80;99.90;;;;;;4982426;28;20042;-81
2022/11/26 09:30:58;;;;;;;17.95;7.50;;;7.90;99.90;;;;;;4986224;28;20040;-83
2022/11/26 09:33:24;;;;;;;24.85;7.78;;;8.00;99.90;;;;;;5000011;28;20026;-82
2022/11/26 09:35:49;;;;;;;17.50;6.90;;;8.10;99.90;;;;;;4971780;28;20387;-82
2022/11/26 09:38:15;;;;;;;12.20;5.32;;;8.30;99.90;;;;;;4987318;28;20041;-81
2022/11/26 09:40:51;;;;;;;20.63;7.53;;;8.30;99.90;;;;;;4970269;28;20030;-81
2022/11/26 09:43:27;;;;;;;20.05;5.97;;;8.50;99.90;;;;;;4999717;28;20096;-81
2022/11/26 09:45:54;;;;;;;12.07;3.53;;;8.60;99.90;;;;;;4984658;28;20501;-82
2022/11/26 09:48:22;;;;;;;22.23;5.63;;;8.80;99.90;;;;;;4985323;28;20867;-82
2022/11/26 09:50:48;;;;;;;16.58;5.57;;;9.00;99.90;;;;;;4972527;28;20029;-82
2022/11/26 09:53:35;;;;;;;13.63;5.20;;;9.00;99.90;;;;;;4978280;28;20034;-82
2022/11/26 09:56:01;;;;;;;17.58;5.22;;;9.00;99.90;;;;;;5007786;28;20477;-82
2022/11/26 09:58:26;;;;;;;12.95;4.82;;;9.00;99.90;;;;;;5002283;28;20035;-82
2022/11/26 10:00:54;;;;;;;14.07;5.78;;;9.10;99.90;;;;;;5026065;28;20026;-82
2022/11/26 10:03:21;;;;;;;11.85;4.63;;;9.20;99.90;;;;;;4997063;28;20041;-82
2022/11/26 10:05:58;;;;;;;13.90;5.25;;;9.40;99.90;;;;;;4996672;28;20049;-83
2022/11/26 10:08:51;;;;;;;9.68;4.55;;;9.60;99.90;;;;;;5002717;28;20026;-82
2022/11/26 10:11:18;;;;;;;18.60;4.45;;;9.50;99.90;;;;;;5022939;28;20108;-82
2022/11/26 10:14:06;;;;;;;14.50;3.95;;;9.50;99.90;;;;;;5002607;28;20030;-82
2022/11/26 10:16:56;;;;;;;10.50;5.03;;;9.50;99.90;;;;;;5017311;28;20025;-83
2022/11/26 10:19:26;;;;;;;16.05;4.97;;;9.60;99.90;;;;;;5021732;28;20484;-83
2022/11/26 10:21:53;;;;;;;10.90;3.92;;;9.60;99.90;;;;;;5005637;28;20079;-82
2022/11/26 10:24:32;;;;;;;10.63;3.92;;;9.70;99.90;;;;;;5017582;28;20099;-83
2022/11/26 10:27:00;;;;;;;15.50;4.60;;;9.80;99.90;;;;;;4988836;28;20076;-82
2022/11/26 10:29:29;;;;;;;13.38;4.15;;;9.80;99.90;;;;;;5006473;28;20409;-83
2022/11/26 10:32:15;;;;;;;16.60;4.43;;;9.90;99.90;;;;;;5019095;28;20072;-84
2022/11/26 10:34:42;;;;;;;15.70;4.87;;;9.90;99.90;;;;;;5010834;28;20129;-84
2022/11/26 10:37:07;;;;;;;13.88;3.72;;;9.80;99.90;;;;;;5018303;28;20041;-84
2022/11/26 10:39:33;;;;;;;14.60;4.20;;;10.00;99.90;;;;;;4994570;28;20033;-84
2022/11/26 10:42:17;;;;;;;13.13;3.67;;;10.10;99.90;;;;;;5006629;28;20026;-84
2022/11/26 10:44:43;;;;;;;10.48;3.30;;;10.20;99.90;;;;;;5004179;28;20518;-84
2022/11/26 10:47:28;;;;;;;8.60;2.78;;;10.20;99.90;;;;;;5003722;28;20121;-84
2022/11/26 10:50:03;;;;;;;14.40;4.07;;;10.20;99.90;;;;;;5005708;28;20022;-84
2022/11/26 10:52:30;;;;;;;9.48;2.90;;;10.20;99.90;;;;;;5002315;28;20053;-84
2022/11/26 10:55:17;;;;;;;13.57;3.83;;;10.20;99.90;;;;;;5000274;28;20036;-84
2022/11/26 10:57:48;;;;;;;13.05;4.13;;;10.20;99.90;;;;;;5021918;28;20038;-84
2022/11/26 11:00:35;;;;;;;25.15;5.93;;;10.30;99.90;;;;;;4993143;28;20113;-84
2022/11/26 11:03:02;;;;;;;11.43;3.15;;;10.30;99.90;;;;;;5001067;28;20037;-83
2022/11/26 11:05:28;;;;;;;13.85;3.40;;;10.30;99.90;;;;;;4960053;28;20787;-85
2022/11/26 11:07:53;;;;;;;17.38;3.33;;;10.40;99.90;;;;;;4998366;28;20037;-84
2022/11/26 11:10:23;;;;;;;17.30;3.08;;;10.50;99.90;;;;;;4982071;28;20030;-84
2022/11/26 11:13:01;;;;;;;15.70;3.25;;;10.50;99.90;;;;;;5005489;28;20029;-84
2022/11/26 11:15:29;;;;;;;17.15;3.45;;;10.50;99.90;;;;;;4998384;28;20052;-84
2022/11/26 11:18:04;;;;;;;10.43;3.10;;;10.70;99.90;;;;;;5021460;28;20033;-84
2022/11/26 11:20:37;;;;;;;10.05;2.63;;;10.60;99.90;;;;;;4990815;28;20041;-84
2022/11/26 11:26:56;;;;;;;11.35;2.53;;;10.70;99.90;;;;;;4950915;28;21445;-85
2022/11/26 11:30:24;;;;;;;;;;;;;;;;;;;;;
2022/11/26 11:33:19;;;;;;;12.98;2.90;;;10.80;99.90;;;;;;4932565;28;20111;-84
2022/11/26 11:36:04;;;;;;;10.50;2.92;;;10.80;99.90;;;;;;4946646;28;20065;-84
2022/11/26 11:38:51;;;;;;;12.40;2.75;;;10.80;99.90;;;;;;4985977;28;20428;-85
2022/11/26 11:41:46;;;;;;;22.17;6.22;;;10.90;99.90;;;;;;5011203;28;20040;-85
2022/11/26 11:44:38;;;;;;;11.43;3.00;;;10.90;99.90;;;;;;4979635;28;20121;-85
2022/11/26 11:47:33;;;;;;;6.90;1.70;;;10.90;99.90;;;;;;4988089;28;20760;-85
2022/11/26 11:50:23;;;;;;;14.60;3.08;;;10.90;99.90;;;;;;4998028;28;20032;-85
2022/11/26 11:53:23;;;;;;;17.10;3.28;;;10.90;99.90;;;;;;4980118;28;20389;-87
2022/11/26 11:56:23;;;;;;;16.02;3.13;;;10.90;99.90;;;;;;5024925;28;20035;-86
2022/11/26 11:58:56;;;;;;;15.45;3.95;;;11.00;99.90;;;;;;4980665;28;20490;-84
2022/11/26 12:01:57;;;;;;;8.23;2.15;;;11.10;99.90;;;;;;5014966;28;20037;-84
2022/11/26 12:04:44;;;;;;;15.18;2.97;;;11.00;99.90;;;;;;5024749;28;20124;-85
2022/11/26 12:07:20;;;;;;;3.88;1.20;;;11.10;99.90;;;;;;5007199;28;20030;-84
2022/11/26 12:10:04;;;;;;;7.53;1.25;;;11.10;99.90;;;;;;5000286;28;20026;-85
2022/11/26 12:12:35;;;;;;;12.07;2.55;;;11.10;99.90;;;;;;5007327;28;20514;-84
2022/11/26 12:15:27;;;;;;;18.25;4.18;;;11.20;99.90;;;;;;4975842;28;20069;-81
2022/11/26 12:17:59;;;;;;;12.68;2.60;;;11.10;99.90;;;;;;4999627;28;20576;-80
2022/11/26 12:20:43;;;;;;;15.77;2.50;;;11.10;99.90;;;;;;5006002;28;20038;-80
2022/11/26 12:23:46;;;;;;;12.70;2.72;;;11.20;99.90;;;;;;5011747;28;20037;-80
2022/11/26 12:26:28;;;;;;;10.65;2.25;;;11.20;99.90;;;;;;5007513;28;20038;-80
2022/11/26 12:29:11;;;;;;;17.60;2.78;;;11.20;99.90;;;;;;4996700;28;20494;-78
2022/11/26 12:31:47;;;;;;;11.93;3.42;;;11.10;99.90;;;;;;4308755;28;10000911;-81
2022/11/26 12:34:46;;;;;;;18.35;3.17;;;11.20;99.90;;;;;;4971371;28;20505;-81
2022/11/26 12:37:12;;;;;;;10.13;2.50;;;11.10;99.90;;;;;;4971766;28;20556;-80
2022/11/26 12:39:59;;;;;;;13.95;2.67;;;11.10;99.90;;;;;;4995660;28;20026;-80
2022/11/26 12:42:46;;;;;;;13.63;2.58;;;11.10;99.90;;;;;;4982895;28;20495;-80
2022/11/26 12:45:39;;;;;;;18.63;3.33;;;11.10;99.90;;;;;;4997736;28;20042;-80
2022/11/26 12:48:24;;;;;;;16.25;3.33;;;11.10;99.90;;;;;;5017191;28;20037;-81
2022/11/26 12:50:55;;;;;;;18.67;3.23;;;11.10;99.90;;;;;;4998967;28;20034;-80
2022/11/26 12:53:57;;;;;;;12.00;2.45;;;11.10;99.90;;;;;;4980178;28;20769;-81
2022/11/26 12:56:32;;;;;;;10.57;2.15;;;11.10;99.90;;;;;;5002702;28;20034;-81
2022/11/26 12:59:25;;;;;;;15.38;2.95;;;11.00;99.90;;;;;;4987376;28;20034;-81
2022/11/26 13:01:52;;;;;;;12.45;2.53;;;11.00;99.90;;;;;;4990796;28;20401;-81
2022/11/26 13:04:18;;;;;;;10.45;2.75;;;11.00;99.90;;;;;;4985031;28;20034;-81
2022/11/26 13:06:52;;;;;;;9.65;2.47;;;10.90;99.90;;;;;;4975372;28;20481;-81